CPA233 VHHH-LIMC
Flight info
| Callsign | CPA233 |
|---|---|
| Flight time | N/A |
| Altitude | 30100 |
| Route | BEKOL A461 SHL W22 TEPID W24 OSNOV G586 QP B330 ELKAL W179 IRVED/K0943S0980 W179 IGNAK/K0941S0950 W179 WFX/K0935S0980 W179 OMBON W195 VIDEK/K0935S0950 W195 LAXAL/K0928S0980 W195 IDOPA W197 ANDIM B215 IBANO G470 AKLAS W192 FKG/K0900S1040 A368 SARIN/K0900F340 N161 GASBI/N0490F360 N161 LEYLA T916 MATAL M11 REBLO UM11 CRM UM688 EKSUK UL852 NEGEM DCT DOLAP DCT ADOSA/N0489F370 DCT IDREK DCT ELTAR DCT NOBMI DCT PEXUG |
| Aircraft | B77W/H-SDE1E2E3FGHIJ2J3J4J5M1RWXY/LB1D1 |
Departure
| Time | 2026-05-06 22:38 |
|---|---|
| Airport | Hong Kong International Airport (VHHH) |
Arrival
| Time | N/A |
|---|---|
| Airport | Milan Malpensa International Airport (LIMC) |
| Time | Latitude | Longitude | Altitude | Speed | Heading |
|---|---|---|---|---|---|
| 2026-05-06 21:53 | 22.31320 | 113.93038 | 42 ft | 0 kts | 342° |
| 2026-05-06 22:18 | 22.31318 | 113.93040 | 42 ft | 2 kts | 342° |
| 2026-05-06 22:18 | 22.31304 | 113.93044 | 42 ft | 0 kts | 342° |
| 2026-05-06 22:18 | 22.31299 | 113.93046 | 42 ft | 2 kts | 341° |
| 2026-05-06 22:18 | 22.31285 | 113.93052 | 42 ft | 2 kts | 327° |
| 2026-05-06 22:19 | 22.31273 | 113.93062 | 42 ft | 2 kts | 314° |
| 2026-05-06 22:19 | 22.31261 | 113.93079 | 42 ft | 2 kts | 298° |
| 2026-05-06 22:19 | 22.31256 | 113.93089 | 42 ft | 2 kts | 290° |
| 2026-05-06 22:19 | 22.31252 | 113.93109 | 42 ft | 2 kts | 275° |
| 2026-05-06 22:20 | 22.31251 | 113.93121 | 42 ft | 2 kts | 266° |
| 2026-05-06 22:20 | 22.31253 | 113.93137 | 42 ft | 2 kts | 255° |
| 2026-05-06 22:20 | 22.31255 | 113.93144 | 42 ft | 0 kts | 250° |
| 2026-05-06 22:21 | 22.31255 | 113.93143 | 42 ft | 0 kts | 250° |
| 2026-05-06 22:22 | 22.31250 | 113.93127 | 42 ft | 4 kts | 251° |
| 2026-05-06 22:22 | 22.31226 | 113.93086 | 42 ft | 8 kts | 212° |
| 2026-05-06 22:22 | 22.31160 | 113.93094 | 41 ft | 10 kts | 162° |
| 2026-05-06 22:22 | 22.31097 | 113.93116 | 42 ft | 8 kts | 162° |
| 2026-05-06 22:23 | 22.31042 | 113.93137 | 42 ft | 9 kts | 161° |
| 2026-05-06 22:23 | 22.30980 | 113.93124 | 42 ft | 11 kts | 232° |
| 2026-05-06 22:23 | 22.30946 | 113.93040 | 42 ft | 13 kts | 250° |
| 2026-05-06 22:23 | 22.30912 | 113.92935 | 42 ft | 15 kts | 251° |
| 2026-05-06 22:24 | 22.30875 | 113.92819 | 42 ft | 16 kts | 251° |
| 2026-05-06 22:24 | 22.30835 | 113.92699 | 42 ft | 17 kts | 250° |
| 2026-05-06 22:24 | 22.30795 | 113.92574 | 42 ft | 17 kts | 251° |
| 2026-05-06 22:24 | 22.30753 | 113.92445 | 42 ft | 18 kts | 251° |
| 2026-05-06 22:25 | 22.30726 | 113.92355 | 42 ft | 18 kts | 251° |
| 2026-05-06 22:25 | 22.30681 | 113.92206 | 42 ft | 9 kts | 271° |
| 2026-05-06 22:25 | 22.30727 | 113.92153 | 42 ft | 11 kts | 340° |
| 2026-05-06 22:25 | 22.30812 | 113.92122 | 42 ft | 14 kts | 341° |
| 2026-05-06 22:26 | 22.30879 | 113.92099 | 42 ft | 15 kts | 342° |
| 2026-05-06 22:26 | 22.30991 | 113.92057 | 41 ft | 18 kts | 340° |
| 2026-05-06 22:26 | 22.31168 | 113.91991 | 41 ft | 21 kts | 342° |
| 2026-05-06 22:26 | 22.31321 | 113.91935 | 42 ft | 24 kts | 341° |
| 2026-05-06 22:27 | 22.31486 | 113.91874 | 41 ft | 21 kts | 341° |
| 2026-05-06 22:27 | 22.31551 | 113.91837 | 41 ft | 8 kts | 300° |
| 2026-05-06 22:27 | 22.31539 | 113.91753 | 41 ft | 14 kts | 252° |
| 2026-05-06 22:27 | 22.31500 | 113.91633 | 41 ft | 19 kts | 251° |
| 2026-05-06 22:28 | 22.31476 | 113.91557 | 41 ft | 9 kts | 251° |
| 2026-05-06 22:28 | 22.31436 | 113.91433 | 41 ft | 16 kts | 251° |
| 2026-05-06 22:28 | 22.31408 | 113.91349 | 42 ft | 18 kts | 250° |
| 2026-05-06 22:28 | 22.31362 | 113.91201 | 41 ft | 22 kts | 251° |
| 2026-05-06 22:29 | 22.31286 | 113.90967 | 41 ft | 27 kts | 251° |
| 2026-05-06 22:29 | 22.31219 | 113.90762 | 41 ft | 30 kts | 251° |
| 2026-05-06 22:29 | 22.31149 | 113.90538 | 41 ft | 32 kts | 251° |
| 2026-05-06 22:29 | 22.31099 | 113.90387 | 41 ft | 30 kts | 251° |
| 2026-05-06 22:30 | 22.31033 | 113.90183 | 41 ft | 24 kts | 251° |
| 2026-05-06 22:30 | 22.30992 | 113.90054 | 41 ft | 8 kts | 250° |
| 2026-05-06 22:30 | 22.30979 | 113.90015 | 41 ft | 7 kts | 251° |
| 2026-05-06 22:30 | 22.30963 | 113.89966 | 41 ft | 0 kts | 251° |
| 2026-05-06 22:31 | 22.30958 | 113.89951 | 41 ft | 2 kts | 251° |
| 2026-05-06 22:32 | 22.30955 | 113.89934 | 41 ft | 2 kts | 271° |
| 2026-05-06 22:32 | 22.30960 | 113.89919 | 41 ft | 4 kts | 304° |
| 2026-05-06 22:32 | 22.30991 | 113.89898 | 41 ft | 0 kts | 340° |
| 2026-05-06 22:35 | 22.31024 | 113.89885 | 41 ft | 8 kts | 341° |
| 2026-05-06 22:35 | 22.31059 | 113.89874 | 41 ft | 7 kts | 343° |
| 2026-05-06 22:35 | 22.31099 | 113.89867 | 41 ft | 4 kts | 18° |
| 2026-05-06 22:35 | 22.31119 | 113.89889 | 41 ft | 2 kts | 62° |
| 2026-05-06 22:36 | 22.31120 | 113.89893 | 41 ft | 0 kts | 65° |
| 2026-05-06 22:37 | 22.31216 | 113.90179 | 42 ft | 71 kts | 71° |
| 2026-05-06 22:37 | 22.31448 | 113.90898 | 42 ft | 130 kts | 71° |
| 2026-05-06 22:37 | 22.31801 | 113.91993 | 42 ft | 181 kts | 71° |
| 2026-05-06 22:38 | 22.32244 | 113.93378 | 389 ft | 197 kts | 72° |
| 2026-05-06 22:38 | 22.32681 | 113.94774 | 1062 ft | 202 kts | 73° |
| 2026-05-06 22:38 | 22.33127 | 113.96218 | 1815 ft | 203 kts | 72° |
| 2026-05-06 22:38 | 22.33727 | 113.97592 | 2325 ft | 208 kts | 58° |
| 2026-05-06 22:39 | 22.34641 | 113.98895 | 2672 ft | 219 kts | 56° |
| 2026-05-06 22:39 | 22.35218 | 113.99776 | 3065 ft | 219 kts | 57° |
| 2026-05-06 22:39 | 22.36387 | 114.01636 | 3690 ft | 225 kts | 58° |
| 2026-05-06 22:39 | 22.36967 | 114.02557 | 4060 ft | 226 kts | 58° |
| 2026-05-06 22:40 | 22.37851 | 114.03962 | 4519 ft | 230 kts | 58° |
| 2026-05-06 22:40 | 22.39071 | 114.05904 | 5165 ft | 234 kts | 57° |
| 2026-05-06 22:40 | 22.39774 | 114.07468 | 5598 ft | 236 kts | 78° |
| 2026-05-06 22:40 | 22.39888 | 114.09249 | 5981 ft | 241 kts | 100° |
| 2026-05-06 22:41 | 22.38904 | 114.12223 | 6298 ft | 269 kts | 116° |
| 2026-05-06 22:41 | 22.37858 | 114.14770 | 6840 ft | 283 kts | 115° |
| 2026-05-06 22:41 | 22.37055 | 114.16753 | 7393 ft | 289 kts | 115° |
| 2026-05-06 22:42 | 22.36521 | 114.18077 | 7731 ft | 293 kts | 115° |
| 2026-05-06 22:42 | 22.35429 | 114.20782 | 8476 ft | 299 kts | 115° |
| 2026-05-06 22:42 | 22.34592 | 114.22858 | 9057 ft | 303 kts | 115° |
| 2026-05-06 22:42 | 22.33836 | 114.24990 | 9575 ft | 308 kts | 102° |
| 2026-05-06 22:43 | 22.33703 | 114.26540 | 9897 ft | 312 kts | 85° |
| 2026-05-06 22:43 | 22.34142 | 114.28813 | 10505 ft | 311 kts | 71° |
| 2026-05-06 22:43 | 22.35283 | 114.31663 | 11303 ft | 312 kts | 59° |
| 2026-05-06 22:43 | 22.36498 | 114.33632 | 11799 ft | 315 kts | 50° |
| 2026-05-06 22:44 | 22.37461 | 114.34820 | 12145 ft | 316 kts | 44° |
| 2026-05-06 22:44 | 22.39133 | 114.36386 | 12665 ft | 317 kts | 30° |
| 2026-05-06 22:44 | 22.41165 | 114.37338 | 12861 ft | 326 kts | 8° |
| 2026-05-06 22:44 | 22.43475 | 114.37347 | 12878 ft | 340 kts | 343° |
| 2026-05-06 22:45 | 22.45710 | 114.36388 | 12937 ft | 356 kts | 330° |
| 2026-05-06 22:45 | 22.48654 | 114.34486 | 13233 ft | 374 kts | 320° |
| 2026-05-06 22:45 | 22.49930 | 114.33240 | 13365 ft | 382 kts | 311° |
| 2026-05-06 22:45 | 22.52034 | 114.30096 | 13851 ft | 392 kts | 296° |
| 2026-05-06 22:46 | 22.53050 | 114.27328 | 14442 ft | 393 kts | 284° |
| 2026-05-06 22:46 | 22.53417 | 114.25413 | 14841 ft | 394 kts | 277° |
| 2026-05-06 22:46 | 22.53730 | 114.21474 | 15606 ft | 397 kts | 276° |
| 2026-05-06 22:46 | 22.54049 | 114.19523 | 15961 ft | 400 kts | 283° |
| 2026-05-06 22:47 | 22.55332 | 114.15714 | 16687 ft | 405 kts | 296° |
| 2026-05-06 22:47 | 22.56257 | 114.13982 | 17024 ft | 408 kts | 302° |
| 2026-05-06 22:47 | 22.58728 | 114.10815 | 17722 ft | 415 kts | 316° |
| 2026-05-06 22:47 | 22.60197 | 114.09501 | 18052 ft | 418 kts | 322° |
| 2026-05-06 22:48 | 22.63597 | 114.07443 | 18718 ft | 425 kts | 336° |
| 2026-05-06 22:48 | 22.66372 | 114.06296 | 19211 ft | 428 kts | 337° |
| 2026-05-06 22:48 | 22.69157 | 114.05113 | 19689 ft | 430 kts | 335° |
| 2026-05-06 22:48 | 22.71948 | 114.03858 | 20167 ft | 432 kts | 335° |
| 2026-05-06 22:49 | 22.73772 | 114.03008 | 20488 ft | 433 kts | 334° |
| 2026-05-06 22:49 | 22.76528 | 114.01691 | 20959 ft | 434 kts | 334° |
| 2026-05-06 22:49 | 22.79319 | 114.00324 | 21393 ft | 437 kts | 333° |
| 2026-05-06 22:49 | 22.83003 | 113.98486 | 21948 ft | 440 kts | 333° |
| 2026-05-06 22:50 | 22.85783 | 113.97084 | 22366 ft | 442 kts | 333° |
| 2026-05-06 22:50 | 22.88617 | 113.95644 | 22783 ft | 444 kts | 333° |
| 2026-05-06 22:50 | 22.91395 | 113.94222 | 23185 ft | 447 kts | 332° |
| 2026-05-06 22:50 | 22.93276 | 113.93253 | 23464 ft | 448 kts | 332° |
| 2026-05-06 22:51 | 22.96085 | 113.91798 | 23878 ft | 450 kts | 332° |
| 2026-05-06 22:51 | 22.98937 | 113.90320 | 24295 ft | 452 kts | 332° |
| 2026-05-06 22:51 | 23.01778 | 113.88845 | 24718 ft | 454 kts | 332° |
| 2026-05-06 22:51 | 23.05601 | 113.86856 | 25248 ft | 457 kts | 332° |
| 2026-05-06 22:52 | 23.07510 | 113.85793 | 25498 ft | 458 kts | 327° |
| 2026-05-06 22:52 | 23.10148 | 113.83839 | 25849 ft | 458 kts | 319° |
| 2026-05-06 22:52 | 23.12514 | 113.81522 | 26234 ft | 459 kts | 314° |
| 2026-05-06 22:52 | 23.15601 | 113.78298 | 26825 ft | 460 kts | 314° |
| 2026-05-06 22:53 | 23.17893 | 113.75898 | 27226 ft | 462 kts | 314° |
| 2026-05-06 22:53 | 23.19452 | 113.74266 | 27472 ft | 464 kts | 314° |
| 2026-05-06 22:53 | 23.21776 | 113.71832 | 27821 ft | 467 kts | 314° |
| 2026-05-06 22:53 | 23.24126 | 113.69369 | 28174 ft | 469 kts | 314° |
| 2026-05-06 22:54 | 23.26471 | 113.66912 | 28530 ft | 472 kts | 314° |
| 2026-05-06 22:54 | 23.29623 | 113.63607 | 29056 ft | 473 kts | 314° |
| 2026-05-06 22:54 | 23.32023 | 113.61090 | 29496 ft | 473 kts | 314° |
| 2026-05-06 22:54 | 23.33570 | 113.59467 | 29819 ft | 472 kts | 314° |
| 2026-05-06 22:55 | 23.36737 | 113.56142 | 29950 ft | 473 kts | 314° |
| 2026-05-06 22:55 | 23.40670 | 113.52011 | 29951 ft | 467 kts | 314° |
| 2026-05-06 22:56 | 23.45338 | 113.47101 | 29952 ft | 468 kts | 314° |
| 2026-05-06 22:56 | 23.50025 | 113.42168 | 29949 ft | 468 kts | 314° |
| 2026-05-06 22:57 | 23.55484 | 113.36393 | 29953 ft | 469 kts | 314° |
| 2026-05-06 22:57 | 23.60119 | 113.31406 | 29959 ft | 467 kts | 313° |
| 2026-05-06 22:58 | 23.64730 | 113.26373 | 29947 ft | 465 kts | 309° |
| 2026-05-06 22:58 | 23.67821 | 113.21598 | 29949 ft | 464 kts | 297° |
| 2026-05-06 22:59 | 23.70537 | 113.15258 | 29957 ft | 462 kts | 294° |
| 2026-05-06 22:59 | 23.73188 | 113.08836 | 29962 ft | 461 kts | 294° |
| 2026-05-06 23:00 | 23.77227 | 113.01977 | 29972 ft | 465 kts | 310° |
| 2026-05-06 23:00 | 23.82184 | 112.97446 | 29975 ft | 470 kts | 326° |
| 2026-05-06 23:01 | 23.88253 | 112.94520 | 29980 ft | 476 kts | 339° |
| 2026-05-06 23:01 | 23.94583 | 112.92421 | 29977 ft | 476 kts | 339° |
| 2026-05-06 23:02 | 23.99888 | 112.90662 | 29981 ft | 475 kts | 339° |
| 2026-05-06 23:02 | 24.06263 | 112.88543 | 29981 ft | 477 kts | 339° |
| 2026-05-06 23:03 | 24.13656 | 112.86081 | 29984 ft | 477 kts | 339° |
| 2026-05-06 23:03 | 24.18981 | 112.84309 | 29981 ft | 476 kts | 339° |
| 2026-05-06 23:04 | 24.26365 | 112.81855 | 29983 ft | 476 kts | 339° |
| 2026-05-06 23:04 | 24.32721 | 112.79739 | 29985 ft | 476 kts | 339° |
| 2026-05-06 23:05 | 24.38799 | 112.77140 | 29982 ft | 468 kts | 327° |
| 2026-05-06 23:05 | 24.43986 | 112.72880 | 29982 ft | 463 kts | 312° |
| 2026-05-06 23:06 | 24.47294 | 112.68330 | 29978 ft | 459 kts | 300° |
| 2026-05-06 23:06 | 24.50168 | 112.60826 | 29983 ft | 457 kts | 283° |
| 2026-05-06 23:07 | 24.51043 | 112.53946 | 29986 ft | 457 kts | 277° |
| 2026-05-06 23:07 | 24.51584 | 112.48188 | 29990 ft | 456 kts | 277° |
| 2026-05-06 23:08 | 24.52350 | 112.40116 | 29990 ft | 457 kts | 277° |
| 2026-05-06 23:08 | 24.53008 | 112.33205 | 29997 ft | 456 kts | 277° |
| 2026-05-06 23:09 | 24.53667 | 112.26289 | 29998 ft | 457 kts | 277° |
| 2026-05-06 23:09 | 24.54328 | 112.19327 | 30003 ft | 457 kts | 277° |
| 2026-05-06 23:10 | 24.54978 | 112.12452 | 30013 ft | 456 kts | 277° |
| 2026-05-06 23:10 | 24.55633 | 112.05502 | 30024 ft | 458 kts | 277° |
| 2026-05-06 23:11 | 24.56178 | 111.99689 | 30503 ft | 463 kts | 277° |
| 2026-05-06 23:11 | 24.56613 | 111.95026 | 31005 ft | 461 kts | 277° |
| 2026-05-06 23:11 | 24.56830 | 111.92706 | 31017 ft | 459 kts | 277° |
| 2026-05-06 23:12 | 24.57580 | 111.84621 | 31013 ft | 454 kts | 277° |
| 2026-05-06 23:12 | 24.58111 | 111.78885 | 31006 ft | 455 kts | 277° |
| 2026-05-06 23:13 | 24.58745 | 111.71993 | 30997 ft | 455 kts | 277° |
| 2026-05-06 23:13 | 24.59376 | 111.65098 | 30986 ft | 455 kts | 277° |
| 2026-05-06 23:14 | 24.60008 | 111.58163 | 30975 ft | 455 kts | 277° |
| 2026-05-06 23:14 | 24.60634 | 111.51247 | 30961 ft | 456 kts | 277° |
| 2026-05-06 23:15 | 24.61357 | 111.43224 | 30955 ft | 456 kts | 277° |
| 2026-05-06 23:15 | 24.61976 | 111.36307 | 30952 ft | 455 kts | 277° |
| 2026-05-06 23:16 | 24.62490 | 111.30542 | 30962 ft | 456 kts | 277° |
| 2026-05-06 23:16 | 24.63096 | 111.23611 | 30961 ft | 457 kts | 277° |
| 2026-05-06 23:17 | 24.63694 | 111.16676 | 30962 ft | 457 kts | 277° |
| 2026-05-06 23:17 | 24.64391 | 111.08551 | 30968 ft | 458 kts | 277° |
| 2026-05-06 23:18 | 24.64983 | 111.01621 | 30968 ft | 457 kts | 277° |
| 2026-05-06 23:18 | 24.65573 | 110.94676 | 30971 ft | 458 kts | 277° |
| 2026-05-06 23:19 | 24.66062 | 110.88883 | 30963 ft | 457 kts | 277° |
| 2026-05-06 23:19 | 24.67449 | 110.80935 | 30953 ft | 455 kts | 290° |
| 2026-05-06 23:20 | 24.70361 | 110.74789 | 30945 ft | 456 kts | 305° |
| 2026-05-06 23:20 | 24.73875 | 110.70447 | 30944 ft | 458 kts | 314° |
| 2026-05-06 23:21 | 24.78495 | 110.65577 | 30936 ft | 459 kts | 314° |
| 2026-05-06 23:21 | 24.83092 | 110.60735 | 30942 ft | 458 kts | 314° |
| 2026-05-06 23:22 | 24.87671 | 110.55907 | 30943 ft | 458 kts | 314° |
| 2026-05-06 23:22 | 24.93045 | 110.50232 | 30947 ft | 460 kts | 315° |
| 2026-05-06 23:23 | 24.97661 | 110.45351 | 30946 ft | 457 kts | 314° |
| 2026-05-06 23:23 | 25.02255 | 110.40491 | 30943 ft | 460 kts | 314° |
| 2026-05-06 23:24 | 25.06879 | 110.35609 | 30934 ft | 459 kts | 314° |
| 2026-05-06 23:24 | 25.10717 | 110.31553 | 30931 ft | 459 kts | 314° |
| 2026-05-06 23:25 | 25.16113 | 110.25845 | 30917 ft | 459 kts | 314° |
| 2026-05-06 23:25 | 25.20712 | 110.20974 | 30914 ft | 459 kts | 314° |
| 2026-05-06 23:26 | 25.24549 | 110.16951 | 30914 ft | 458 kts | 315° |
| 2026-05-06 23:26 | 25.29181 | 110.12106 | 30911 ft | 459 kts | 315° |
| 2026-05-06 23:27 | 25.34586 | 110.06441 | 30917 ft | 458 kts | 315° |
| 2026-05-06 23:27 | 25.39190 | 110.01609 | 30924 ft | 458 kts | 315° |
| 2026-05-06 23:28 | 25.43035 | 109.97568 | 30934 ft | 461 kts | 315° |
| 2026-05-06 23:28 | 25.47677 | 109.92687 | 30951 ft | 458 kts | 315° |
| 2026-05-06 23:29 | 25.52280 | 109.87839 | 30959 ft | 460 kts | 315° |
| 2026-05-06 23:29 | 25.56919 | 109.82948 | 30960 ft | 459 kts | 315° |
| 2026-05-06 23:30 | 25.62336 | 109.77229 | 30961 ft | 461 kts | 315° |
| 2026-05-06 23:30 | 25.66174 | 109.73174 | 30958 ft | 460 kts | 315° |
| 2026-05-06 23:31 | 25.71612 | 109.67420 | 30948 ft | 463 kts | 315° |
| 2026-05-06 23:31 | 25.75951 | 109.62220 | 30936 ft | 459 kts | 304° |
| 2026-05-06 23:32 | 25.78539 | 109.57069 | 30931 ft | 462 kts | 292° |
| 2026-05-06 23:32 | 25.80492 | 109.50301 | 30928 ft | 461 kts | 287° |
| 2026-05-06 23:33 | 25.82293 | 109.43473 | 30926 ft | 462 kts | 287° |
| 2026-05-06 23:33 | 25.84092 | 109.36633 | 30934 ft | 465 kts | 287° |
| 2026-05-06 23:34 | 25.85890 | 109.29781 | 30955 ft | 462 kts | 286° |
| 2026-05-06 23:34 | 25.87686 | 109.22924 | 30948 ft | 464 kts | 286° |
| 2026-05-06 23:35 | 25.89475 | 109.16077 | 30954 ft | 464 kts | 286° |
| 2026-05-06 23:35 | 25.91267 | 109.09198 | 30933 ft | 466 kts | 287° |
| 2026-05-06 23:36 | 25.93371 | 109.01160 | 30943 ft | 465 kts | 287° |
| 2026-05-06 23:36 | 25.95215 | 108.94244 | 30950 ft | 468 kts | 287° |
| 2026-05-06 23:37 | 25.97047 | 108.87350 | 30954 ft | 463 kts | 286° |
| 2026-05-06 23:37 | 25.98869 | 108.80481 | 30947 ft | 464 kts | 286° |
| 2026-05-06 23:38 | 26.00389 | 108.74734 | 30960 ft | 469 kts | 286° |
| 2026-05-06 23:38 | 26.02225 | 108.67813 | 30963 ft | 466 kts | 286° |
| 2026-05-06 23:39 | 26.04054 | 108.60934 | 30966 ft | 466 kts | 287° |
| 2026-05-06 23:39 | 26.05895 | 108.53999 | 30976 ft | 468 kts | 286° |
| 2026-05-06 23:40 | 26.07719 | 108.47108 | 30973 ft | 464 kts | 286° |
| 2026-05-06 23:40 | 26.09986 | 108.39095 | 30989 ft | 468 kts | 292° |
| 2026-05-06 23:41 | 26.12283 | 108.33665 | 31009 ft | 466 kts | 295° |
| 2026-05-06 23:41 | 26.15110 | 108.27152 | 31035 ft | 467 kts | 295° |
| 2026-05-06 23:42 | 26.17915 | 108.20673 | 31047 ft | 465 kts | 294° |
| 2026-05-06 23:42 | 26.21173 | 108.13129 | 31062 ft | 467 kts | 294° |
| 2026-05-06 23:43 | 26.23976 | 108.06626 | 31048 ft | 466 kts | 294° |
| 2026-05-06 23:43 | 26.26308 | 108.01209 | 31049 ft | 466 kts | 294° |
| 2026-05-06 23:44 | 26.29107 | 107.94698 | 31045 ft | 464 kts | 294° |
| 2026-05-06 23:44 | 26.32340 | 107.87163 | 31048 ft | 465 kts | 294° |
| 2026-05-06 23:45 | 26.35118 | 107.80675 | 31041 ft | 463 kts | 294° |
| 2026-05-06 23:45 | 26.37420 | 107.75294 | 31045 ft | 462 kts | 294° |
| 2026-05-06 23:46 | 26.40196 | 107.68796 | 31051 ft | 464 kts | 294° |
| 2026-05-06 23:46 | 26.42961 | 107.62312 | 31060 ft | 463 kts | 294° |
| 2026-05-06 23:47 | 26.46170 | 107.54775 | 31073 ft | 463 kts | 294° |
| 2026-05-06 23:47 | 26.48923 | 107.48293 | 31095 ft | 462 kts | 294° |
| 2026-05-06 23:48 | 26.51672 | 107.41802 | 31107 ft | 462 kts | 294° |
| 2026-05-06 23:48 | 26.54397 | 107.35358 | 31100 ft | 462 kts | 294° |
| 2026-05-06 23:49 | 26.56681 | 107.29961 | 31111 ft | 461 kts | 294° |
| 2026-05-06 23:49 | 26.59412 | 107.23508 | 31114 ft | 461 kts | 294° |
| 2026-05-06 23:50 | 26.62595 | 107.15972 | 31119 ft | 459 kts | 294° |
| 2026-05-06 23:50 | 26.66236 | 107.07388 | 31117 ft | 460 kts | 294° |
| 2026-05-06 23:51 | 26.69437 | 106.99853 | 31115 ft | 459 kts | 294° |
| 2026-05-06 23:51 | 26.72158 | 106.93433 | 31119 ft | 458 kts | 294° |
| 2026-05-06 23:52 | 26.74436 | 106.88052 | 31122 ft | 460 kts | 294° |
| 2026-05-06 23:52 | 26.77717 | 106.80598 | 31138 ft | 461 kts | 300° |
| 2026-05-06 23:53 | 26.81013 | 106.75845 | 31141 ft | 464 kts | 313° |
| 2026-05-06 23:53 | 26.86645 | 106.70214 | 31150 ft | 467 kts | 316° |
| 2026-05-06 23:54 | 26.90711 | 106.66240 | 31151 ft | 467 kts | 316° |
| 2026-05-06 23:54 | 26.96408 | 106.60660 | 31150 ft | 467 kts | 316° |
| 2026-05-06 23:55 | 27.00472 | 106.56673 | 31146 ft | 466 kts | 316° |
| 2026-05-06 23:55 | 27.06148 | 106.51096 | 31137 ft | 465 kts | 316° |
| 2026-05-06 23:56 | 27.10222 | 106.47089 | 31134 ft | 466 kts | 316° |
| 2026-05-06 23:56 | 27.15083 | 106.42300 | 31136 ft | 466 kts | 316° |
| 2026-05-06 23:57 | 27.19940 | 106.37510 | 31143 ft | 466 kts | 316° |
| 2026-05-06 23:57 | 27.25632 | 106.31967 | 31148 ft | 462 kts | 316° |
| 2026-05-06 23:58 | 27.29698 | 106.28012 | 31148 ft | 463 kts | 316° |
| 2026-05-06 23:58 | 27.34543 | 106.23293 | 31151 ft | 463 kts | 316° |
| 2026-05-06 23:59 | 27.40228 | 106.17747 | 31152 ft | 463 kts | 316° |
| 2026-05-06 23:59 | 27.45088 | 106.12999 | 31157 ft | 463 kts | 316° |
| 2026-05-07 00:00 | 27.49961 | 106.08232 | 31146 ft | 463 kts | 316° |
| 2026-05-07 00:00 | 27.54001 | 106.04275 | 31147 ft | 463 kts | 316° |
| 2026-05-07 00:01 | 27.58847 | 105.99525 | 31139 ft | 462 kts | 316° |
| 2026-05-07 00:01 | 27.64495 | 105.93980 | 31142 ft | 461 kts | 316° |
| 2026-05-07 00:02 | 27.69280 | 105.89208 | 31135 ft | 459 kts | 312° |
| 2026-05-07 00:02 | 27.73118 | 105.83567 | 31128 ft | 452 kts | 297° |
| 2026-05-07 00:03 | 27.75174 | 105.78172 | 31135 ft | 451 kts | 287° |
| 2026-05-07 00:03 | 27.77380 | 105.70326 | 31145 ft | 449 kts | 287° |